This is the latest recevied weather packets stored in our database for station/object DD3UTS-13. If no packets are shown the sender has not sent any weather packets the latest 10 day(s).
| Time | Temp. | Humidity | Pressure | Rain* | Wind** | Luminosity | Snow |
|---|---|---|---|---|---|---|---|
| 1777801531 | 25.56° C | 28% | 1014.4 hPa | 0 mm | - | 523 W/m² | - |
| 1777801232 | 25.56° C | 27% | 1014.5 hPa | 0 mm | - | 520 W/m² | - |
| 1777800932 | 25.56° C | 28% | 1014.4 hPa | 0 mm | - | 503 W/m² | - |
| 1777800632 | 25.56° C | 26% | 1014.6 hPa | 0 mm | - | 489 W/m² | - |
| 1777800332 | 25.56° C | 27% | 1014.6 hPa | 0 mm | - | 491 W/m² | - |
| 1777800032 | 25.56° C | 26% | 1014.6 hPa | 0 mm | - | 514 W/m² | - |
| 1777799732 | 25.56° C | 27% | 1014.5 hPa | 0 mm | - | 531 W/m² | - |
| 1777799432 | 25.56° C | 26% | 1014.5 hPa | 0 mm | - | 495 W/m² | - |
| 1777799131 | 25.56° C | 27% | 1014.6 hPa | 0 mm | - | 488 W/m² | - |
| 1777798831 | 25.56° C | 28% | 1014.6 hPa | 0 mm | - | 485 W/m² | - |
| 1777798532 | 25.56° C | 34% | 1014.6 hPa | 0 mm | - | 524 W/m² | - |
| 1777798231 | 25.56° C | 35% | 1014.6 hPa | 0 mm | - | 528 W/m² | - |
| 1777797932 | 25.56° C | 32% | 1014.6 hPa | 0 mm | - | 510 W/m² | - |
| 1777797631 | 25.56° C | 36% | 1014.7 hPa | 0 mm | - | 534 W/m² | - |
| 1777797332 | 25.56° C | 37% | 1014.7 hPa | 0 mm | - | 530 W/m² | - |
| 1777797032 | 25° C | 37% | 1014.7 hPa | 0 mm | - | 537 W/m² | - |
| 1777796731 | 25° C | 38% | 1014.7 hPa | 0 mm | - | 525 W/m² | - |
| 1777796432 | 25° C | 38% | 1014.7 hPa | 0 mm | - | 526 W/m² | - |
| 1777796132 | 25° C | 38% | 1014.8 hPa | 0 mm | - | 524 W/m² | - |
| 1777795831 | 24.44° C | 38% | 1014.8 hPa | 0 mm | - | 506 W/m² | - |
| 1777795531 | 24.44° C | 32% | 1014.8 hPa | 0 mm | - | 465 W/m² | - |
| 1777795232 | 24.44° C | 31% | 1014.8 hPa | 0 mm | - | 476 W/m² | - |
| 1777794931 | 23.89° C | 33% | 1014.8 hPa | 0 mm | - | 483 W/m² | - |
| 1777794632 | 23.89° C | 33% | 1014.8 hPa | 0 mm | - | 471 W/m² | - |
| 1777794332 | 23.33° C | 33% | 1014.8 hPa | 0 mm | - | 471 W/m² | - |
* Rain latest 24 hours (hover to see other rain measurements)
** Current wind speed in m/s (hover to see current wind gust speed)